createdAt,value
2023-05-09T00:00:39.777Z,87.80
2023-05-09T00:03:06.305Z,87.64
2023-05-09T00:05:32.906Z,87.78
2023-05-09T00:07:59.261Z,87.48
2023-05-09T00:10:27.469Z,87.54
2023-05-09T00:12:55.926Z,87.75
2023-05-09T00:15:22.526Z,87.38
2023-05-09T00:17:50.640Z,87.37
2023-05-09T00:20:17.600Z,87.49
2023-05-09T00:22:43.988Z,87.33
2023-05-09T00:25:11.353Z,87.63
2023-05-09T00:27:38.219Z,87.67
2023-05-09T00:30:05.892Z,87.82
2023-05-09T00:32:33.692Z,87.96
2023-05-09T00:35:00.263Z,87.91
2023-05-09T00:37:26.838Z,88.18
2023-05-09T00:39:53.364Z,88.63
2023-05-09T00:42:19.954Z,88.81
2023-05-09T00:44:46.389Z,88.85
2023-05-09T00:47:12.954Z,88.92
2023-05-09T00:49:39.598Z,88.71
2023-05-09T00:52:06.515Z,88.63
2023-05-09T00:54:33.053Z,88.69
2023-05-09T00:57:00.381Z,88.76
2023-05-09T00:59:27.375Z,88.82
2023-05-09T01:01:53.854Z,89.18
2023-05-09T01:04:20.470Z,89.51
2023-05-09T01:07:06.091Z,89.12
2023-05-09T01:09:45.883Z,88.78
2023-05-09T01:12:32.562Z,88.99
2023-05-09T01:15:21.675Z,88.97
2023-05-09T01:18:01.049Z,89.19
2023-05-09T01:20:34.101Z,89.30
2023-05-09T01:23:25.387Z,89.02
2023-05-09T01:26:03.198Z,89.30
2023-05-09T01:28:51.770Z,89.59
2023-05-09T01:31:20.008Z,90.03
2023-05-09T01:33:52.842Z,90.20
2023-05-09T01:36:21.387Z,90.42
2023-05-09T01:38:51.791Z,90.69
2023-05-09T01:41:19.817Z,90.88
2023-05-09T01:43:49.640Z,90.96
2023-05-09T01:46:17.729Z,90.81
2023-05-09T01:48:45.668Z,90.43
2023-05-09T01:51:14.275Z,90.41
2023-05-09T01:53:42.084Z,90.54
2023-05-09T01:56:10.080Z,91.25
2023-05-09T01:58:38.268Z,91.04
2023-05-09T02:01:05.967Z,90.76
2023-05-09T02:03:34.318Z,90.67
2023-05-09T02:06:04.862Z,90.27
2023-05-09T02:08:32.880Z,90.48
2023-05-09T02:10:59.417Z,90.50
2023-05-09T02:13:26.146Z,90.62
2023-05-09T02:15:53.584Z,90.67
2023-05-09T02:18:20.538Z,90.84
2023-05-09T02:20:47.064Z,90.76
2023-05-09T02:23:13.560Z,90.38
2023-05-09T02:25:40.799Z,90.43
2023-05-09T02:28:10.000Z,90.53
2023-05-09T02:30:41.979Z,91.05
2023-05-09T02:33:11.882Z,91.04
2023-05-09T02:35:41.989Z,91.17
2023-05-09T02:38:08.669Z,91.45
2023-05-09T02:40:35.599Z,91.55
2023-05-09T02:43:02.148Z,91.41
2023-05-09T02:45:28.570Z,91.23
2023-05-09T02:47:55.085Z,91.03
2023-05-09T02:50:21.603Z,91.01
2023-05-09T02:52:48.082Z,90.89
2023-05-09T02:55:14.860Z,90.73
2023-05-09T02:57:41.479Z,90.56
2023-05-09T03:00:12.134Z,90.61
2023-05-09T03:02:39.139Z,90.50
2023-05-09T03:05:06.288Z,91.37
2023-05-09T03:07:33.035Z,92.10
2023-05-09T03:09:59.583Z,92.42
2023-05-09T03:12:26.489Z,92.75
2023-05-09T03:14:52.899Z,92.72
2023-05-09T03:17:21.400Z,92.61
2023-05-09T03:19:48.544Z,92.50
2023-05-09T03:22:15.657Z,92.20
2023-05-09T03:24:42.121Z,92.35
2023-05-09T03:27:08.500Z,92.94
2023-05-09T03:29:35.075Z,93.31
2023-05-09T03:32:01.462Z,93.57
2023-05-09T03:34:27.826Z,93.82
2023-05-09T03:36:54.317Z,94.07
2023-05-09T03:39:20.693Z,94.05
2023-05-09T03:41:48.777Z,94.42
2023-05-09T03:44:15.563Z,94.84
2023-05-09T03:46:42.153Z,94.61
2023-05-09T03:49:08.603Z,94.49
2023-05-09T03:51:35.251Z,94.52
2023-05-09T03:54:01.670Z,94.31
2023-05-09T03:56:28.058Z,94.52
2023-05-09T03:58:54.546Z,94.61
2023-05-09T04:01:21.166Z,94.58
2023-05-09T04:03:47.755Z,94.62
2023-05-09T04:06:14.326Z,94.46
2023-05-09T04:08:40.685Z,94.41
2023-05-09T04:11:07.328Z,94.23
2023-05-09T04:13:34.214Z,94.38
2023-05-09T04:16:01.551Z,94.60
2023-05-09T04:18:28.088Z,94.63
2023-05-09T04:20:54.506Z,94.21
2023-05-09T04:23:20.991Z,94.36
2023-05-09T04:25:47.472Z,94.38
2023-05-09T04:28:13.897Z,94.47
2023-05-09T04:30:40.524Z,94.42
2023-05-09T04:33:07.222Z,94.53
2023-05-09T04:35:33.801Z,94.64
2023-05-09T04:38:00.658Z,94.64
2023-05-09T04:40:27.245Z,94.54
2023-05-09T04:42:53.775Z,94.56
2023-05-09T04:45:20.223Z,94.51
2023-05-09T04:47:46.650Z,94.40
2023-05-09T04:50:13.453Z,94.39
2023-05-09T04:52:40.054Z,94.22
2023-05-09T04:55:06.975Z,94.17
2023-05-09T04:57:33.560Z,94.12
2023-05-09T05:00:00.013Z,94.14
2023-05-09T05:02:26.696Z,94.19
2023-05-09T05:05:00.130Z,94.29
2023-05-09T05:07:32.987Z,94.26
2023-05-09T05:09:59.421Z,94.08
2023-05-09T05:12:25.965Z,94.25
2023-05-09T05:14:52.765Z,94.37
2023-05-09T05:17:19.166Z,94.05
2023-05-09T05:19:45.734Z,93.87
2023-05-09T05:22:12.210Z,93.86
2023-05-09T05:24:38.653Z,93.70
2023-05-09T05:27:05.114Z,93.52
2023-05-09T05:29:31.560Z,93.33
2023-05-09T05:31:57.987Z,93.28
2023-05-09T05:34:24.687Z,93.20
2023-05-09T05:36:51.476Z,93.17
2023-05-09T05:39:18.015Z,92.78
2023-05-09T05:41:44.517Z,92.47
2023-05-09T05:44:11.115Z,92.26
2023-05-09T05:46:38.799Z,92.12
2023-05-09T05:49:05.487Z,91.86
2023-05-09T05:51:32.365Z,91.89
2023-05-09T05:53:58.815Z,91.81
2023-05-09T05:56:26.073Z,91.37
2023-05-09T05:58:52.538Z,90.87
2023-05-09T06:01:19.038Z,90.83
2023-05-09T06:03:45.596Z,90.56
2023-05-09T06:06:12.251Z,90.33
2023-05-09T06:08:38.764Z,89.99
2023-05-09T06:11:05.937Z,89.71
2023-05-09T06:13:32.576Z,89.76
2023-05-09T06:16:07.800Z,89.79
2023-05-09T06:18:40.046Z,89.03
2023-05-09T06:21:07.429Z,89.02
2023-05-09T06:23:34.172Z,88.74
2023-05-09T06:26:00.601Z,88.75
2023-05-09T06:28:27.188Z,88.46
2023-05-09T06:30:53.619Z,88.52
2023-05-09T06:33:20.085Z,88.65
2023-05-09T06:35:46.534Z,88.38
2023-05-09T06:38:12.949Z,88.13
2023-05-09T06:40:39.415Z,88.31
2023-05-09T06:43:05.833Z,88.44
2023-05-09T06:45:32.306Z,88.28
2023-05-09T06:47:58.733Z,87.99
2023-05-09T06:50:25.239Z,87.99
2023-05-09T06:52:51.741Z,87.86
2023-05-09T06:55:18.235Z,88.08
2023-05-09T06:57:44.877Z,87.81
2023-05-09T07:00:11.990Z,87.49
2023-05-09T07:02:41.726Z,87.51
2023-05-09T07:05:10.109Z,87.45
2023-05-09T07:07:36.815Z,87.56
2023-05-09T07:10:11.231Z,87.58
2023-05-09T07:12:38.988Z,87.39
2023-05-09T07:15:06.369Z,87.42
2023-05-09T07:17:32.797Z,87.47
2023-05-09T07:19:59.293Z,87.64
2023-05-09T07:22:25.862Z,88.03
2023-05-09T07:24:52.382Z,87.84
2023-05-09T07:27:18.947Z,87.94
2023-05-09T07:29:45.413Z,88.09
2023-05-09T07:32:11.895Z,88.06
2023-05-09T07:34:38.515Z,88.46
2023-05-09T07:37:04.908Z,88.59
2023-05-09T07:39:31.281Z,88.45
2023-05-09T07:41:57.762Z,88.54
2023-05-09T07:44:24.242Z,88.82
2023-05-09T07:46:50.720Z,88.80
2023-05-09T07:49:17.217Z,89.18
2023-05-09T07:51:43.793Z,89.22
2023-05-09T07:54:10.267Z,89.70
2023-05-09T07:56:36.969Z,90.22
2023-05-09T07:59:03.516Z,89.88
2023-05-09T08:01:30.003Z,90.08
2023-05-09T08:03:56.531Z,90.57
2023-05-09T08:06:23.456Z,90.81
2023-05-09T08:08:49.932Z,90.37
2023-05-09T08:11:16.389Z,90.64
2023-05-09T08:13:42.977Z,90.74
2023-05-09T08:16:09.489Z,90.90
2023-05-09T08:18:35.977Z,90.78
2023-05-09T08:21:02.473Z,90.86
2023-05-09T08:23:30.294Z,91.30
2023-05-09T08:25:56.991Z,91.35
2023-05-09T08:28:24.388Z,91.52
2023-05-09T08:30:51.960Z,91.63
2023-05-09T08:33:18.526Z,91.74
2023-05-09T08:35:45.250Z,91.70
2023-05-09T08:38:11.787Z,91.70
2023-05-09T08:40:38.766Z,92.12
2023-05-09T08:43:07.229Z,92.36
2023-05-09T08:45:39.811Z,92.07
2023-05-09T08:48:07.131Z,91.87
2023-05-09T08:50:35.634Z,91.80
2023-05-09T08:53:02.774Z,91.71
2023-05-09T08:55:29.574Z,91.96
2023-05-09T08:57:56.287Z,92.30
2023-05-09T09:00:23.545Z,92.31
2023-05-09T09:02:51.149Z,91.63
2023-05-09T09:05:39.605Z,92.30
2023-05-09T09:08:10.378Z,92.50
2023-05-09T09:10:41.169Z,92.46
2023-05-09T09:13:10.031Z,92.65
2023-05-09T09:15:38.540Z,92.62
2023-05-09T09:18:09.697Z,92.15
2023-05-09T09:20:42.149Z,92.42
2023-05-09T09:23:12.662Z,92.19
2023-05-09T09:25:39.265Z,91.90
2023-05-09T09:28:05.882Z,91.97
2023-05-09T09:30:32.669Z,92.24
2023-05-09T09:32:59.719Z,92.70
2023-05-09T09:35:26.405Z,93.05
2023-05-09T09:38:01.569Z,92.90
2023-05-09T09:40:28.061Z,93.08
2023-05-09T09:42:54.625Z,93.53
2023-05-09T09:45:21.125Z,93.86
2023-05-09T09:47:49.936Z,93.66
2023-05-09T09:50:23.406Z,93.27
2023-05-09T09:52:54.017Z,92.91
2023-05-09T09:55:21.975Z,92.84
2023-05-09T09:57:49.085Z,93.00
2023-05-09T10:00:17.638Z,92.98
2023-05-09T10:02:49.398Z,93.01
2023-05-09T10:05:34.458Z,92.70
2023-05-09T10:08:07.114Z,93.31
2023-05-09T10:10:35.325Z,93.63
2023-05-09T10:13:10.594Z,93.70
2023-05-09T10:15:49.412Z,94.02
2023-05-09T10:18:25.086Z,94.14
2023-05-09T10:20:53.200Z,94.35
2023-05-09T10:23:20.882Z,94.27
2023-05-09T10:26:11.614Z,94.48
2023-05-09T10:28:40.578Z,94.43
2023-05-09T10:31:14.908Z,94.51
2023-05-09T10:33:48.298Z,94.59
2023-05-09T10:36:17.708Z,94.90
2023-05-09T10:38:44.945Z,94.82
2023-05-09T10:41:12.333Z,94.82
2023-05-09T10:43:39.379Z,94.48
2023-05-09T10:46:07.053Z,94.61
2023-05-09T10:48:33.938Z,94.87
2023-05-09T10:51:02.546Z,94.74
2023-05-09T10:53:48.689Z,95.23
2023-05-09T10:56:39.788Z,95.26
2023-05-09T10:59:06.604Z,95.79
2023-05-09T11:01:39.528Z,96.21
2023-05-09T11:04:11.511Z,96.12
2023-05-09T11:06:48.835Z,95.99
2023-05-09T11:09:41.460Z,96.20
2023-05-09T11:12:13.564Z,96.32
2023-05-09T11:14:45.096Z,96.40
2023-05-09T11:17:31.722Z,96.92
2023-05-09T11:20:06.592Z,97.17
2023-05-09T11:22:42.289Z,96.90
2023-05-09T11:25:11.422Z,96.21
2023-05-09T11:27:49.501Z,96.51
2023-05-09T11:30:18.352Z,96.41
2023-05-09T11:32:52.020Z,95.98
2023-05-09T11:35:20.893Z,96.29
2023-05-09T11:37:52.834Z,96.69
2023-05-09T11:40:20.930Z,96.96
2023-05-09T11:42:58.048Z,97.34
2023-05-09T11:45:29.547Z,97.34
2023-05-09T11:47:57.273Z,97.61
2023-05-09T11:50:24.110Z,97.75
2023-05-09T11:52:50.709Z,97.92
2023-05-09T11:55:25.621Z,97.99
2023-05-09T11:57:54.368Z,97.86
2023-05-09T12:00:23.555Z,98.06
2023-05-09T12:02:51.278Z,98.03
2023-05-09T12:05:19.917Z,98.02
2023-05-09T12:07:47.141Z,98.04
2023-05-09T12:10:15.662Z,98.39
2023-05-09T12:12:45.393Z,98.62
2023-05-09T12:15:13.595Z,98.92
2023-05-09T12:17:41.759Z,99.06
2023-05-09T12:20:09.426Z,99.31
2023-05-09T12:22:39.441Z,99.33
2023-05-09T12:25:08.693Z,99.38
2023-05-09T12:27:36.923Z,99.54
2023-05-09T12:30:10.378Z,99.66
2023-05-09T12:32:39.567Z,99.97
2023-05-09T12:35:10.533Z,99.89
2023-05-09T12:37:37.671Z,100.00
2023-05-09T12:40:12.980Z,99.94
2023-05-09T12:42:43.443Z,99.94
2023-05-09T12:45:10.742Z,99.71
2023-05-09T12:47:41.898Z,99.62
2023-05-09T12:50:11.499Z,99.72
2023-05-09T12:52:58.567Z,99.96
2023-05-09T12:55:28.981Z,100.00
2023-05-09T12:58:03.535Z,100.00
2023-05-09T13:00:43.724Z,100.00
2023-05-09T13:03:25.417Z,100.00
2023-05-09T13:06:02.235Z,99.89
2023-05-09T13:08:29.534Z,99.82
2023-05-09T13:11:07.837Z,99.80
2023-05-09T13:13:34.795Z,99.39
2023-05-09T13:16:03.719Z,99.43
2023-05-09T13:18:30.127Z,99.65
2023-05-09T13:20:56.730Z,99.59
2023-05-09T13:23:23.204Z,99.50
2023-05-09T13:25:49.688Z,99.00
2023-05-09T13:28:16.250Z,99.15
2023-05-09T13:30:42.958Z,99.68
2023-05-09T13:33:24.653Z,99.78
2023-05-09T13:35:52.681Z,99.65
2023-05-09T13:38:19.142Z,100.00
2023-05-09T13:40:45.724Z,100.00
2023-05-09T13:43:12.180Z,100.00
2023-05-09T13:45:38.706Z,99.85
2023-05-09T13:48:05.380Z,99.57
2023-05-09T13:50:31.815Z,98.93
2023-05-09T13:52:58.573Z,98.86
2023-05-09T13:55:26.387Z,98.69
2023-05-09T13:57:52.958Z,98.30
2023-05-09T14:00:21.372Z,98.06
2023-05-09T14:02:49.663Z,97.93
2023-05-09T14:05:16.942Z,98.11
2023-05-09T14:07:43.556Z,98.40
2023-05-09T14:10:12.339Z,98.71
2023-05-09T14:12:40.056Z,99.00
2023-05-09T14:15:08.041Z,99.13
2023-05-09T14:17:34.671Z,98.88
2023-05-09T14:20:01.101Z,98.86
2023-05-09T14:22:28.188Z,98.99
2023-05-09T14:24:56.443Z,99.07
2023-05-09T14:27:22.904Z,99.38
2023-05-09T14:29:49.427Z,99.17
2023-05-09T14:32:16.153Z,99.28
2023-05-09T14:34:42.887Z,99.21
2023-05-09T14:37:13.630Z,98.84
2023-05-09T14:39:45.290Z,98.99
2023-05-09T14:42:13.933Z,98.55
2023-05-09T14:44:41.330Z,98.65
2023-05-09T14:47:08.936Z,98.59
2023-05-09T14:49:37.217Z,98.53
2023-05-09T14:52:03.668Z,98.58
2023-05-09T14:54:30.280Z,98.53
2023-05-09T14:56:57.412Z,98.04
2023-05-09T14:59:24.120Z,98.19
2023-05-09T15:01:51.743Z,98.46
2023-05-09T15:04:18.396Z,98.30
2023-05-09T15:06:45.428Z,97.85
2023-05-09T15:09:12.934Z,97.93
2023-05-09T15:11:47.500Z,98.41
2023-05-09T15:14:15.187Z,98.85
2023-05-09T15:16:41.967Z,99.10
2023-05-09T15:19:08.528Z,99.23
2023-05-09T15:21:35.282Z,99.09
2023-05-09T15:24:02.462Z,99.22
2023-05-09T15:26:29.408Z,99.29
2023-05-09T15:28:56.179Z,99.27
2023-05-09T15:31:24.162Z,99.27
2023-05-09T15:33:50.718Z,99.16
2023-05-09T15:36:17.384Z,98.99
2023-05-09T15:38:48.292Z,99.08
2023-05-09T15:41:15.837Z,99.26
2023-05-09T15:43:42.371Z,99.11
2023-05-09T15:46:08.919Z,98.59
2023-05-09T15:48:35.338Z,98.66
2023-05-09T15:51:02.644Z,98.54
2023-05-09T15:53:29.394Z,98.63
2023-05-09T15:55:57.003Z,98.62
2023-05-09T15:58:23.532Z,98.51
2023-05-09T16:00:50.091Z,98.74
2023-05-09T16:03:16.987Z,98.88
2023-05-09T16:05:43.831Z,98.99
2023-05-09T16:08:10.544Z,99.35
2023-05-09T16:10:36.933Z,99.14
2023-05-09T16:13:03.499Z,98.98
2023-05-09T16:15:29.998Z,98.95
2023-05-09T16:17:56.460Z,99.31
2023-05-09T16:20:23.050Z,99.21
2023-05-09T16:22:49.500Z,99.48
2023-05-09T16:25:16.692Z,99.69
2023-05-09T16:27:43.119Z,99.51
2023-05-09T16:30:10.119Z,99.58
2023-05-09T16:32:36.949Z,99.68
2023-05-09T16:35:04.144Z,99.83
2023-05-09T16:37:31.061Z,99.72
2023-05-09T16:39:59.367Z,99.94
2023-05-09T16:42:25.960Z,99.94
2023-05-09T16:44:52.624Z,100.00
2023-05-09T16:47:19.041Z,100.00
2023-05-09T16:49:46.025Z,100.00
2023-05-09T16:52:12.522Z,100.00
2023-05-09T16:54:38.901Z,100.00
2023-05-09T16:57:05.542Z,100.00
2023-05-09T16:59:32.826Z,100.00
2023-05-09T17:01:59.697Z,100.00
2023-05-09T17:04:26.583Z,100.00
2023-05-09T17:06:53.318Z,100.00
2023-05-09T17:09:19.840Z,100.00
2023-05-09T17:11:46.582Z,100.00
2023-05-09T17:14:12.937Z,100.00
2023-05-09T17:16:39.301Z,100.00
2023-05-09T17:19:05.780Z,100.00
2023-05-09T17:21:32.405Z,100.00
2023-05-09T17:23:58.974Z,100.00
2023-05-09T17:26:25.922Z,100.00
2023-05-09T17:28:52.333Z,100.00
2023-05-09T17:31:18.960Z,100.00
2023-05-09T17:33:45.816Z,100.00
2023-05-09T17:36:12.158Z,100.00
2023-05-09T17:38:38.695Z,100.00
2023-05-09T17:41:05.952Z,100.00
2023-05-09T17:43:32.434Z,100.00
2023-05-09T17:45:59.159Z,100.00
2023-05-09T17:48:25.953Z,100.00
2023-05-09T17:50:52.684Z,100.00
2023-05-09T17:53:19.125Z,100.00
2023-05-09T17:55:45.661Z,100.00
2023-05-09T17:58:12.308Z,100.00
2023-05-09T18:00:38.746Z,100.00
2023-05-09T18:03:05.258Z,100.00
2023-05-09T18:05:32.184Z,100.00
2023-05-09T18:08:00.850Z,100.00
2023-05-09T18:10:28.543Z,100.00
2023-05-09T18:12:55.156Z,100.00
2023-05-09T18:15:21.806Z,100.00
2023-05-09T18:17:49.418Z,100.00
2023-05-09T18:20:16.225Z,100.00
2023-05-09T18:22:43.983Z,100.00
2023-05-09T18:25:10.388Z,100.00
2023-05-09T18:27:36.892Z,100.00
2023-05-09T18:30:03.384Z,100.00
2023-05-09T18:32:29.950Z,100.00
2023-05-09T18:34:56.479Z,100.00
2023-05-09T18:37:23.024Z,100.00
2023-05-09T18:39:49.702Z,100.00
2023-05-09T18:42:16.483Z,100.00
2023-05-09T18:44:43.109Z,100.00
2023-05-09T18:47:09.665Z,100.00
2023-05-09T18:49:36.219Z,100.00
2023-05-09T18:52:03.479Z,100.00
2023-05-09T18:54:29.941Z,100.00
2023-05-09T18:56:56.452Z,100.00
2023-05-09T18:59:24.330Z,100.00
2023-05-09T19:01:50.801Z,100.00
2023-05-09T19:04:17.665Z,100.00
2023-05-09T19:06:44.208Z,100.00
2023-05-09T19:09:11.496Z,100.00
2023-05-09T19:11:38.109Z,100.00
2023-05-09T19:14:05.419Z,100.00
2023-05-09T19:16:31.895Z,100.00
2023-05-09T19:18:58.842Z,100.00
2023-05-09T19:21:25.672Z,100.00
2023-05-09T19:23:52.318Z,100.00
2023-05-09T19:26:19.521Z,100.00
2023-05-09T19:28:46.881Z,100.00
2023-05-09T19:31:14.961Z,100.00
2023-05-09T19:33:42.750Z,100.00
2023-05-09T19:36:09.283Z,100.00
2023-05-09T19:38:35.645Z,100.00
2023-05-09T19:41:02.099Z,100.00
2023-05-09T19:43:28.503Z,100.00
2023-05-09T19:45:55.010Z,100.00
2023-05-09T19:48:21.445Z,100.00
2023-05-09T19:50:48.001Z,100.00
2023-05-09T19:53:14.532Z,100.00
2023-05-09T19:55:41.204Z,100.00
2023-05-09T19:58:07.790Z,100.00
2023-05-09T20:00:35.992Z,100.00
2023-05-09T20:03:04.101Z,100.00
2023-05-09T20:05:42.970Z,100.00
2023-05-09T20:08:09.697Z,100.00
2023-05-09T20:10:36.470Z,100.00
2023-05-09T20:13:04.347Z,100.00
2023-05-09T20:15:31.185Z,100.00
2023-05-09T20:17:58.529Z,100.00
2023-05-09T20:20:25.299Z,100.00
2023-05-09T20:22:51.729Z,100.00
2023-05-09T20:25:18.508Z,100.00
2023-05-09T20:27:45.012Z,100.00
2023-05-09T20:30:11.944Z,100.00
2023-05-09T20:32:38.758Z,100.00
2023-05-09T20:35:05.588Z,100.00
2023-05-09T20:37:32.026Z,100.00
2023-05-09T20:39:58.622Z,100.00
2023-05-09T20:42:25.713Z,100.00
2023-05-09T20:44:52.812Z,100.00
2023-05-09T20:47:19.294Z,100.00
2023-05-09T20:49:45.870Z,100.00
2023-05-09T20:52:12.610Z,100.00
2023-05-09T20:54:39.046Z,100.00
2023-05-09T20:57:05.590Z,100.00
2023-05-09T20:59:32.109Z,100.00
2023-05-09T21:01:58.613Z,100.00
2023-05-09T21:04:25.381Z,100.00
2023-05-09T21:06:52.070Z,100.00
2023-05-09T21:09:18.762Z,100.00
2023-05-09T21:11:46.061Z,100.00
2023-05-09T21:14:12.680Z,100.00
2023-05-09T21:16:39.500Z,100.00
2023-05-09T21:19:06.823Z,100.00
2023-05-09T21:21:35.839Z,100.00
2023-05-09T21:24:04.212Z,100.00
2023-05-09T21:26:30.891Z,100.00
2023-05-09T21:28:57.331Z,100.00
2023-05-09T21:31:23.855Z,100.00
2023-05-09T21:33:50.575Z,100.00
2023-05-09T21:36:17.142Z,100.00
2023-05-09T21:38:43.620Z,100.00
2023-05-09T21:41:10.525Z,100.00
2023-05-09T21:43:37.603Z,100.00
2023-05-09T21:46:06.075Z,100.00
2023-05-09T21:48:32.748Z,100.00
2023-05-09T21:51:03.507Z,100.00
2023-05-09T21:53:30.070Z,100.00
2023-05-09T21:55:56.632Z,100.00
2023-05-09T21:58:23.025Z,100.00
2023-05-09T22:00:49.582Z,100.00
2023-05-09T22:03:16.227Z,100.00
2023-05-09T22:05:42.798Z,100.00
2023-05-09T22:08:09.391Z,100.00
2023-05-09T22:10:37.452Z,100.00
2023-05-09T22:13:03.946Z,100.00
2023-05-09T22:15:30.548Z,100.00
2023-05-09T22:17:57.018Z,100.00
2023-05-09T22:20:23.817Z,100.00
2023-05-09T22:22:50.449Z,100.00
2023-05-09T22:25:16.946Z,100.00
2023-05-09T22:27:44.746Z,100.00
2023-05-09T22:30:12.387Z,100.00
2023-05-09T22:32:39.249Z,100.00
2023-05-09T22:35:06.158Z,100.00
2023-05-09T22:37:32.707Z,100.00
2023-05-09T22:40:01.497Z,100.00
2023-05-09T22:42:29.381Z,100.00
2023-05-09T22:44:55.961Z,100.00
2023-05-09T22:47:22.671Z,100.00
2023-05-09T22:49:50.338Z,100.00
2023-05-09T22:52:17.085Z,100.00
2023-05-09T22:54:43.589Z,100.00
2023-05-09T22:57:09.974Z,100.00
2023-05-09T22:59:37.012Z,100.00
2023-05-09T23:02:03.881Z,100.00
2023-05-09T23:04:30.530Z,100.00
2023-05-09T23:06:57.283Z,100.00
2023-05-09T23:09:23.739Z,100.00
2023-05-09T23:11:50.213Z,99.90
2023-05-09T23:14:16.613Z,99.64
2023-05-09T23:16:44.373Z,99.83
2023-05-09T23:19:10.915Z,99.80
2023-05-09T23:21:37.625Z,99.79
2023-05-09T23:24:04.671Z,99.80
2023-05-09T23:26:31.150Z,99.92
2023-05-09T23:28:57.488Z,99.95
2023-05-09T23:31:24.063Z,99.91
2023-05-09T23:33:50.586Z,100.00
2023-05-09T23:36:17.465Z,100.00
2023-05-09T23:38:43.826Z,99.94
2023-05-09T23:41:10.343Z,100.00
2023-05-09T23:43:37.574Z,99.90
2023-05-09T23:46:04.444Z,99.89
2023-05-09T23:48:31.006Z,99.90
2023-05-09T23:50:57.532Z,100.00
2023-05-09T23:53:23.964Z,100.00
2023-05-09T23:55:50.548Z,100.00
2023-05-09T23:58:16.898Z,100.00
